Anassa M — SVA6658 — position and weather

sailwx.info

Track history (hours):
 
Tides and Currents Weather Stations Pressure Air Temp Water Temp Dewpoint Dewpoint Depression Visibility Wind Speed Wind Dir Waves Ship Positions

Anassa M

Last reported at 2017-Sep-20 21:00 UTC. Time now 2017-Sep-20 23:37 UTC.
Position N 40°47' E 024°42'.

Length 102 m; draft 2.4 m.

Type: Passenger vessel. MMSI: 239925700.

Date/timePositionNaut miles runAvg speedWind from/ knotsBaromVisibWave heightAir tempDewpointWater temp
2017-Sep-20 21:00N 40°47' E 024°42'0 0.0
2017-Sep-20 20:30N 40°47' E 024°42'0 0.0
2017-Sep-20 20:00N 40°47' E 024°42'0 0.0
2017-Sep-20 19:30N 40°47' E 024°42'0 0.0
2017-Sep-20 19:00N 40°47' E 024°42'0 0.0
2017-Sep-20 18:30N 40°47' E 024°42'0 0.0
2017-Sep-20 18:00N 40°47' E 024°42'0 0.0
2017-Sep-20 17:30N 40°47' E 024°42'0 0.0
2017-Sep-20 17:00N 40°47' E 024°42'0 0.0
2017-Sep-20 16:30N 40°47' E 024°42'0 0.0
2017-Sep-20 16:00N 40°47' E 024°42'0 0.0
2017-Sep-20 15:27N 40°47' E 024°42'0 0.7
2017-Sep-20 15:00N 40°47' E 024°42'4 3.9
2017-Sep-20 13:53N 40°51' E 024°42'2 6.1
2017-Sep-20 13:31N 40°49' E 024°41'2 4.8
2017-Sep-20 13:00N 40°47' E 024°42'0 0.0
2017-Sep-20 12:30N 40°47' E 024°42'0 0.0
2017-Sep-20 11:57N 40°47' E 024°42'0 0.0
2017-Sep-20 11:27N 40°47' E 024°42'0 0.0
2017-Sep-20 11:00N 40°47' E 024°42'0 0.0
2017-Sep-20 10:30N 40°47' E 024°42'0 0.0
2017-Sep-20 10:00N 40°47' E 024°42'0 0.0
2017-Sep-20 09:30N 40°47' E 024°42'4 7.6
2017-Sep-20 09:00N 40°48' E 024°37'3 5.8
2017-Sep-20 08:31N 40°46' E 024°34'5 9.5
2017-Sep-20 08:00N 40°47' E 024°29'5 9.7
2017-Sep-20 07:30N 40°49' E 024°23'3 6.0
2017-Sep-20 07:00N 40°51' E 024°19'510.3
2017-Sep-20 06:31N 40°50' E 024°26'510.7
2017-Sep-20 06:00N 40°49' E 024°33'510.4
2017-Sep-20 05:30N 40°48' E 024°39'2 3.9
2017-Sep-20 05:00N 40°48' E 024°42'4 7.6
2017-Sep-20 04:30N 40°51' E 024°42'0 0.1
2017-Sep-20 04:00N 40°51' E 024°42'0 0.0
2017-Sep-20 03:30N 40°51' E 024°42'0 0.0
2017-Sep-20 03:00N 40°51' E 024°42'0 0.0
2017-Sep-20 02:30N 40°51' E 024°42'0 0.0
2017-Sep-20 02:00N 40°51' E 024°42'0 0.0
2017-Sep-20 01:30N 40°51' E 024°42'0 0.0
2017-Sep-20 01:00N 40°51' E 024°42'0 0.0
2017-Sep-20 00:30N 40°51' E 024°42'0 0.0
2017-Sep-20 00:00N 40°51' E 024°42'0 0.0
2017-Sep-19 23:30N 40°51' E 024°42'0 0.0
2017-Sep-19 23:00N 40°51' E 024°42'0 0.0
2017-Sep-19 22:30N 40°51' E 024°42'0 0.0
2017-Sep-19 22:00N 40°51' E 024°42'0 0.0
2017-Sep-19 21:30N 40°51' E 024°42'0 0.0
2017-Sep-19 21:00N 40°51' E 024°42'0 0.0
2017-Sep-19 20:30N 40°51' E 024°42'0 0.0
2017-Sep-19 20:00N 40°51' E 024°42'0 0.0
2017-Sep-19 19:30N 40°51' E 024°42'0 0.0
2017-Sep-19 19:00N 40°51' E 024°42'0 0.0
2017-Sep-19 18:30N 40°51' E 024°42'0 0.0
2017-Sep-19 18:00N 40°51' E 024°42'0 0.0
2017-Sep-19 17:30N 40°51' E 024°42'0 0.0
2017-Sep-19 17:01N 40°51' E 024°42'0 0.0
2017-Sep-19 16:30N 40°51' E 024°42'0 0.0
2017-Sep-19 16:00N 40°51' E 024°42'0 0.0
2017-Sep-19 15:30N 40°51' E 024°42'0 0.0
2017-Sep-19 15:00N 40°51' E 024°42'0 0.7
2017-Sep-19 14:30N 40°52' E 024°42'5 9.5
2017-Sep-19 14:00N 40°47' E 024°42'0 0.0
2017-Sep-19 13:31N 40°47' E 024°42'0 0.0
2017-Sep-19 13:00N 40°47' E 024°42'0 0.0
2017-Sep-19 12:31N 40°47' E 024°42'0 0.0
2017-Sep-19 12:01N 40°47' E 024°42'1 1.8
2017-Sep-19 11:30N 40°48' E 024°42'4 7.5
2017-Sep-19 11:00N 40°51' E 024°42'0 0.0
2017-Sep-19 10:31N 40°51' E 024°42'2 4.7
2017-Sep-19 10:00N 40°49' E 024°42'2 4.7
2017-Sep-19 09:30N 40°47' E 024°42'0 0.0
2017-Sep-19 09:00N 40°47' E 024°42'0 0.0
2017-Sep-19 08:30N 40°47' E 024°42'1 1.7
2017-Sep-19 08:00N 40°48' E 024°42'4 7.7
2017-Sep-19 07:30N 40°51' E 024°42'0 0.0
2017-Sep-19 07:00N 40°51' E 024°42'2 4.8
2017-Sep-19 06:30N 40°49' E 024°42'2 4.7
2017-Sep-19 06:00N 40°47' E 024°42'3 6.4
2017-Sep-19 05:30N 40°50' E 024°41'2 3.4
2017-Sep-19 05:00N 40°51' E 024°42'1 1.6
2017-Sep-19 04:30N 40°52' E 024°41'5 9.6
2017-Sep-19 04:01N 40°47' E 024°42'0 0.0
2017-Sep-19 03:29N 40°47' E 024°42'0 0.0
2017-Sep-19 02:59N 40°47' E 024°42'0 0.0
2017-Sep-19 02:29N 40°47' E 024°42'0 0.0
2017-Sep-19 01:59N 40°47' E 024°42'0 0.0
2017-Sep-19 01:29N 40°47' E 024°42'0 0.0
2017-Sep-19 00:59N 40°47' E 024°42'0 0.0
2017-Sep-19 00:29N 40°47' E 024°42'0 0.0
2017-Sep-18 23:59N 40°47' E 024°42'0 0.0
2017-Sep-18 23:29N 40°47' E 024°42'0 0.0
2017-Sep-18 22:59N 40°47' E 024°42'0 0.0
2017-Sep-18 22:29N 40°47' E 024°42'0 0.0
2017-Sep-18 21:59N 40°47' E 024°42'0 0.0
2017-Sep-18 21:29N 40°47' E 024°42'0 0.0
2017-Sep-18 20:59N 40°47' E 024°42'0 0.0
2017-Sep-18 20:26N 40°47' E 024°42'0 0.0
2017-Sep-18 19:59N 40°47' E 024°42'0 0.0
2017-Sep-18 19:29N 40°47' E 024°42'0 0.0
2017-Sep-18 18:59N 40°47' E 024°42'0 0.0
2017-Sep-18 18:29N 40°47' E 024°42'0 0.0
2017-Sep-18 17:59N 40°47' E 024°42'0 0.0
2017-Sep-18 17:29N 40°47' E 024°42'0 0.0
2017-Sep-18 16:59N 40°47' E 024°42'0 0.0
2017-Sep-18 16:29N 40°47' E 024°42'0 0.0
2017-Sep-18 15:56N 40°47' E 024°42'0 0.0
2017-Sep-18 15:26N 40°47' E 024°42'0 0.0
2017-Sep-18 14:59N 40°47' E 024°42'0 0.0
2017-Sep-18 14:29N 40°47' E 024°42'0 0.0
2017-Sep-18 13:59N 40°47' E 024°42'0 0.0
2017-Sep-18 13:29N 40°47' E 024°42'0 0.0
2017-Sep-18 12:59N 40°47' E 024°42'0 0.0
2017-Sep-18 12:29N 40°47' E 024°42'0 0.0
2017-Sep-18 11:59N 40°47' E 024°42'0 0.0
2017-Sep-18 11:29N 40°47' E 024°42'0 0.0
2017-Sep-18 10:59N 40°47' E 024°42'0 0.0
2017-Sep-18 10:29N 40°47' E 024°42'0 0.0
2017-Sep-18 09:59N 40°47' E 024°42'3 7.0
2017-Sep-18 09:31N 40°50' E 024°41'2 3.4
2017-Sep-18 09:01N 40°51' E 024°42'1 1.4
2017-Sep-18 08:31N 40°52' E 024°41'5 9.7
2017-Sep-18 08:00N 40°47' E 024°42'1 1.2
2017-Sep-18 07:30N 40°47' E 024°42'4 8.1
2017-Sep-18 07:00N 40°51' E 024°42'0 0.0
2017-Sep-18 06:31N 40°51' E 024°42'2 4.7
2017-Sep-18 06:00N 40°49' E 024°42'2 4.7
2017-Sep-18 05:31N 40°47' E 024°42'1 2.5
2017-Sep-18 05:00N 40°48' E 024°42'3 6.8
2017-Sep-18 04:30N 40°51' E 024°42'0 0.0
2017-Sep-18 04:00N 40°51' E 024°42'0 0.0
2017-Sep-18 03:30N 40°51' E 024°42'0 0.0
2017-Sep-18 03:00N 40°51' E 024°42'0 0.0
2017-Sep-18 02:30N 40°51' E 024°42'0 0.0
2017-Sep-18 02:00N 40°51' E 024°42'0 0.0
2017-Sep-18 01:30N 40°51' E 024°42'0 0.0
2017-Sep-18 01:00N 40°51' E 024°42'0 0.0
2017-Sep-18 00:30N 40°51' E 024°42'0 0.0
2017-Sep-18 00:00N 40°51' E 024°42'0 0.0
2017-Sep-17 23:30N 40°51' E 024°42'0 0.0
2017-Sep-17 23:00N 40°51' E 024°42'0 0.0
2017-Sep-17 22:30N 40°51' E 024°42'0 0.0
2017-Sep-17 22:00N 40°51' E 024°42'0 0.0
2017-Sep-17 21:30N 40°51' E 024°42'0 0.0
2017-Sep-17 21:00N 40°51' E 024°42'0 0.0
2017-Sep-17 20:30N 40°51' E 024°42'0 0.0
2017-Sep-17 20:00N 40°51' E 024°42'0 0.0
2017-Sep-17 19:30N 40°51' E 024°42'0 0.0
2017-Sep-17 19:00N 40°51' E 024°42'0 0.0
2017-Sep-17 18:30N 40°51' E 024°42'0 0.6
2017-Sep-17 18:00N 40°52' E 024°42'5 9.5
2017-Sep-17 17:30N 40°47' E 024°42'0 0.0
2017-Sep-17 17:00N 40°47' E 024°42'0 0.0
2017-Sep-17 16:30N 40°47' E 024°42'0 0.0
2017-Sep-17 16:00N 40°47' E 024°42'0 0.0
2017-Sep-17 15:30N 40°47' E 024°42'0 0.0
2017-Sep-17 15:00N 40°47' E 024°42'1 1.6
2017-Sep-17 14:30N 40°48' E 024°42'4 7.8
2017-Sep-17 14:00N 40°51' E 024°42'0 0.0
2017-Sep-17 13:30N 40°51' E 024°42'2 4.7
2017-Sep-17 13:00N 40°49' E 024°42'2 4.7
2017-Sep-17 12:30N 40°47' E 024°42'1 1.6
2017-Sep-17 12:00N 40°48' E 024°42'4 7.8
2017-Sep-17 11:30N 40°51' E 024°42'0 0.0
2017-Sep-17 11:00N 40°51' E 024°42'2 4.9
2017-Sep-17 10:30N 40°49' E 024°42'2 4.4
2017-Sep-17 10:00N 40°47' E 024°42'1 1.7
2017-Sep-17 09:30N 40°48' E 024°42'4 7.6
2017-Sep-17 09:00N 40°51' E 024°42'0 0.1
2017-Sep-17 08:28N 40°51' E 024°42'2 5.4
2017-Sep-17 08:00N 40°49' E 024°41'2 4.1
2017-Sep-17 07:27N 40°47' E 024°42'1 1.8
2017-Sep-17 07:00N 40°48' E 024°42'4 7.8
2017-Sep-17 06:30N 40°51' E 024°42'0 0.0
2017-Sep-17 05:58N 40°51' E 024°42'2 5.1
2017-Sep-17 05:31N 40°49' E 024°42'2 4.3
2017-Sep-17 04:57N 40°47' E 024°42'1 1.8
2017-Sep-17 04:30N 40°48' E 024°42'4 7.7
2017-Sep-17 04:00N 40°51' E 024°42'0 0.0
2017-Sep-17 03:30N 40°51' E 024°42'0 0.0
2017-Sep-17 03:00N 40°51' E 024°42'0 0.0
2017-Sep-17 02:30N 40°51' E 024°42'0 0.0
2017-Sep-17 02:00N 40°51' E 024°42'0 0.0
2017-Sep-17 01:27N 40°51' E 024°42'0 0.0
2017-Sep-17 00:57N 40°51' E 024°42'0 0.0
2017-Sep-17 00:27N 40°51' E 024°42'0 0.0
2017-Sep-16 23:57N 40°51' E 024°42'0 0.0
2017-Sep-16 23:30N 40°51' E 024°42'0 0.0
2017-Sep-16 23:00N 40°51' E 024°42'0 0.0
2017-Sep-16 22:30N 40°51' E 024°42'0 0.0
2017-Sep-16 22:00N 40°51' E 024°42'0 0.0
2017-Sep-16 21:30N 40°51' E 024°42'0 0.0
2017-Sep-16 21:00N 40°51' E 024°42'0 0.0
2017-Sep-16 20:30N 40°51' E 024°42'0 0.0
2017-Sep-16 20:00N 40°51' E 024°42'0 0.0
2017-Sep-16 19:27N 40°51' E 024°42'0 0.0
2017-Sep-16 19:00N 40°51' E 024°42'0 0.0
2017-Sep-16 18:30N 40°51' E 024°42'0 0.2
2017-Sep-16 18:00N 40°51' E 024°42'5 9.3
2017-Sep-16 17:30N 40°47' E 024°42'0 0.0
2017-Sep-16 17:00N 40°47' E 024°42'0 0.0
2017-Sep-16 16:30N 40°47' E 024°42'0 0.0
2017-Sep-16 16:00N 40°47' E 024°42'1 1.6
2017-Sep-16 15:31N 40°48' E 024°42'4 7.7
2017-Sep-16 15:00N 40°51' E 024°42'0 0.0
2017-Sep-16 14:28N 40°51' E 024°42'3 5.6
2017-Sep-16 14:00N 40°49' E 024°42'2 3.7
2017-Sep-16 13:26N 40°47' E 024°42'1 2.1
2017-Sep-16 13:00N 40°48' E 024°42'4 7.5
2017-Sep-16 12:30N 40°51' E 024°42'0 0.0
2017-Sep-16 11:55N 40°51' E 024°42'2 5.6
2017-Sep-16 11:31N 40°49' E 024°42'2 4.1
2017-Sep-16 10:56N 40°47' E 024°42'1 2.7
2017-Sep-16 10:30N 40°48' E 024°42'4 7.1
2017-Sep-16 10:00N 40°51' E 024°42'0 0.0
2017-Sep-16 09:27N 40°51' E 024°42'2 5.5
2017-Sep-16 09:00N 40°49' E 024°41'2 4.6
2017-Sep-16 08:29N 40°47' E 024°42'1 2.4
2017-Sep-16 08:00N 40°48' E 024°41'4 7.4
2017-Sep-16 07:30N 40°51' E 024°42'0 0.1
2017-Sep-16 07:00N 40°51' E 024°42'2 4.6
2017-Sep-16 06:30N 40°49' E 024°42'2 5.0
2017-Sep-16 06:01N 40°47' E 024°42'1 1.7
2017-Sep-16 05:31N 40°48' E 024°42'4 7.8
2017-Sep-16 05:01N 40°51' E 024°42'0 0.0
2017-Sep-16 04:30N 40°51' E 024°42'3 5.2
2017-Sep-16 04:00N 40°49' E 024°42'2 4.2
2017-Sep-16 03:30N 40°47' E 024°42'0 0.0
2017-Sep-16 03:00N 40°47' E 024°42'0 0.0
2017-Sep-16 02:30N 40°47' E 024°42'0 0.0
2017-Sep-16 02:00N 40°47' E 024°42'0 0.0
2017-Sep-16 01:30N 40°47' E 024°42'0 0.0
2017-Sep-16 01:00N 40°47' E 024°42'0 0.0
2017-Sep-16 00:30N 40°47' E 024°42'0 0.0
2017-Sep-16 00:00N 40°47' E 024°42'0 0.0
2017-Sep-15 23:30N 40°47' E 024°42'0 0.0
2017-Sep-15 23:00N 40°47' E 024°42'0 0.0
2017-Sep-15 22:30N 40°47' E 024°42'0 0.0
2017-Sep-15 22:00N 40°47' E 024°42'0 0.0
2017-Sep-15 21:30N 40°47' E 024°42'0 0.0
2017-Sep-15 21:00N 40°47' E 024°42'0 0.0
2017-Sep-15 20:30N 40°47' E 024°42'0 0.0
2017-Sep-15 20:00N 40°47' E 024°42'0 0.0
2017-Sep-15 19:30N 40°47' E 024°42'0 0.0
2017-Sep-15 19:00N 40°47' E 024°42'0 0.0
2017-Sep-15 18:30N 40°47' E 024°42'0 0.0
2017-Sep-15 18:00N 40°47' E 024°42'0 0.0
2017-Sep-15 17:30N 40°47' E 024°42'0 0.5
2017-Sep-15 17:01N 40°47' E 024°42'4 8.9
2017-Sep-15 16:31N 40°51' E 024°42'0 0.0
2017-Sep-15 16:00N 40°51' E 024°42'2 4.8
2017-Sep-15 15:31N 40°49' E 024°42'2 4.4
2017-Sep-15 14:59N 40°47' E 024°42'0 0.0
2017-Sep-15 14:29N 40°47' E 024°42'1 1.5
2017-Sep-15 14:00N 40°47' E 024°42'4 8.0
2017-Sep-15 13:31N 40°51' E 024°42'0 0.1
2017-Sep-15 12:56N 40°51' E 024°42'2 5.4
2017-Sep-15 12:30N 40°49' E 024°42'2 4.8
2017-Sep-15 12:00N 40°47' E 024°42'1 1.6
2017-Sep-15 11:31N 40°48' E 024°42'4 7.8
2017-Sep-15 11:01N 40°51' E 024°42'0 0.0
2017-Sep-15 10:30N 40°51' E 024°42'2 4.7
2017-Sep-15 10:00N 40°49' E 024°41'2 4.8
2017-Sep-15 09:30N 40°47' E 024°42'1 1.8
2017-Sep-15 09:00N 40°48' E 024°42'4 7.7
2017-Sep-15 08:31N 40°51' E 024°42'0 0.0
2017-Sep-15 07:58N 40°51' E 024°42'2 5.1
2017-Sep-15 07:30N 40°49' E 024°42'2 4.6
2017-Sep-15 07:00N 40°47' E 024°42'1 1.6
2017-Sep-15 06:30N 40°48' E 024°42'4 7.8
2017-Sep-15 06:00N 40°51' E 024°42'0 0.0
2017-Sep-15 05:28N 40°51' E 024°42'2 5.0
2017-Sep-15 05:00N 40°49' E 024°41'2 4.6
2017-Sep-15 04:28N 40°47' E 024°42'1 1.9
2017-Sep-15 04:00N 40°48' E 024°42'4 7.8
2017-Sep-15 03:31N 40°51' E 024°42'0 0.0
2017-Sep-15 02:59N 40°51' E 024°42'2 5.2
2017-Sep-15 02:31N 40°49' E 024°42'2 4.6
2017-Sep-15 02:00N 40°47' E 024°42'0 0.0
2017-Sep-15 01:30N 40°47' E 024°42'0 0.0
2017-Sep-15 01:00N 40°47' E 024°42'0 0.0
2017-Sep-15 00:30N 40°47' E 024°42'0 0.0
2017-Sep-15 00:00N 40°47' E 024°42'0 0.0
2017-Sep-14 23:27N 40°47' E 024°42'0 0.0
2017-Sep-14 23:00N 40°47' E 024°42'0 0.0
2017-Sep-14 22:30N 40°47' E 024°42'0 0.0
2017-Sep-14 22:00N 40°47' E 024°42'0 0.0
2017-Sep-14 21:30N 40°47' E 024°42'0 0.0
2017-Sep-14 21:00N 40°47' E 024°42'0 0.8
2017-Sep-14 20:30N 40°47' E 024°42'4 8.4
2017-Sep-14 20:00N 40°51' E 024°42'0 0.0
2017-Sep-14 19:27N 40°51' E 024°42'2 5.4
2017-Sep-14 19:00N 40°49' E 024°41'2 4.4
2017-Sep-14 18:28N 40°47' E 024°42'0 0.0
2017-Sep-14 17:58N 40°47' E 024°42'4 7.9
2017-Sep-14 17:30N 40°50' E 024°41'1 2.8
2017-Sep-14 16:59N 40°51' E 024°42'1 1.4
2017-Sep-14 16:31N 40°52' E 024°41'5 9.5
2017-Sep-14 16:00N 40°47' E 024°42'0 0.0
2017-Sep-14 15:30N 40°47' E 024°42'0 0.0
2017-Sep-14 15:00N 40°47' E 024°42'1 1.7
2017-Sep-14 14:30N 40°48' E 024°42'4 7.9
2017-Sep-14 14:00N 40°51' E 024°42'0 0.0
2017-Sep-14 13:29N 40°51' E 024°42'2 4.9
2017-Sep-14 13:00N 40°49' E 024°41'2 4.6
2017-Sep-14 12:28N 40°47' E 024°42'1 2.1
2017-Sep-14 12:00N 40°48' E 024°42'4 7.7
2017-Sep-14 11:31N 40°51' E 024°42'0 0.1
2017-Sep-14 10:56N 40°51' E 024°42'2 5.4
2017-Sep-14 10:30N 40°49' E 024°41'2 4.5
2017-Sep-14 09:58N 40°47' E 024°42'1 2.0
2017-Sep-14 09:30N 40°48' E 024°42'4 7.5
2017-Sep-14 09:00N 40°51' E 024°42'0 0.0
2017-Sep-14 08:30N 40°51' E 024°42'2 4.8
2017-Sep-14 08:00N 40°49' E 024°42'2 4.3
2017-Sep-14 07:28N 40°47' E 024°42'1 2.0
2017-Sep-14 07:00N 40°48' E 024°42'4 7.5
2017-Sep-14 06:30N 40°51' E 024°42'0 0.0
2017-Sep-14 05:59N 40°51' E 024°42'2 5.0
2017-Sep-14 05:30N 40°49' E 024°41'2 4.6
2017-Sep-14 04:59N 40°47' E 024°42'1 2.3
2017-Sep-14 04:30N 40°48' E 024°42'4 7.2
2017-Sep-14 04:00N 40°51' E 024°42'0 0.0
2017-Sep-14 03:23N 40°51' E 024°42'0 0.0
2017-Sep-14 02:59N 40°51' E 024°42'0 0.0
2017-Sep-14 02:29N 40°51' E 024°42'0 0.0
2017-Sep-14 01:59N 40°51' E 024°42'0 0.0
2017-Sep-14 01:29N 40°51' E 024°42'0 0.0
2017-Sep-14 00:59N 40°51' E 024°42'0 0.0
2017-Sep-14 00:29N 40°51' E 024°42'0 0.0
2017-Sep-13 23:59N 40°51' E 024°42'0 0.0
2017-Sep-13 23:29N 40°51' E 024°42'0 0.0
2017-Sep-13 22:59N 40°51' E 024°42'0 0.0
2017-Sep-13 22:29N 40°51' E 024°42'0 0.0
2017-Sep-13 21:59N 40°51' E 024°42'0 0.0
2017-Sep-13 21:29N 40°51' E 024°42'0 0.0
2017-Sep-13 20:59N 40°51' E 024°42'0 0.4
2017-Sep-13 20:30N 40°52' E 024°42'5 9.5
2017-Sep-13 20:00N 40°47' E 024°42'0 0.0
2017-Sep-13 19:30N 40°47' E 024°42'0 0.1
2017-Sep-13 18:49N 40°47' E 024°42'0 0.0
2017-Sep-13 18:28N 40°47' E 024°42'0 0.0
2017-Sep-13 17:58N 40°47' E 024°42'0 0.0
2017-Sep-13 17:28N 40°47' E 024°42'1 1.6
2017-Sep-13 17:01N 40°48' E 024°42'4 7.8
2017-Sep-13 16:31N 40°51' E 024°42'0 0.0
2017-Sep-13 15:58N 40°51' E 024°42'2 4.9
2017-Sep-13 15:31N 40°49' E 024°42'2 4.4
2017-Sep-13 14:56N 40°47' E 024°42'0 0.0
2017-Sep-13 14:29N 40°47' E 024°42'1 1.8
2017-Sep-13 14:00N 40°48' E 024°42'4 7.7
2017-Sep-13 13:30N 40°51' E 024°42'0 0.0
2017-Sep-13 12:56N 40°51' E 024°42'2 5.2
2017-Sep-13 12:30N 40°49' E 024°42'2 4.7
2017-Sep-13 11:59N 40°47' E 024°42'1 1.4
2017-Sep-13 11:30N 40°47' E 024°42'4 8.0
2017-Sep-13 11:00N 40°51' E 024°42'0 0.0
2017-Sep-13 10:30N 40°51' E 024°42'2 4.6
2017-Sep-13 10:00N 40°49' E 024°42'2 4.8
2017-Sep-13 09:30N 40°47' E 024°42'1 1.3
2017-Sep-13 09:00N 40°47' E 024°42'4 8.0
2017-Sep-13 08:30N 40°51' E 024°42'0 0.0
2017-Sep-13 08:00N 40°51' E 024°42'2 4.7
2017-Sep-13 07:30N 40°49' E 024°42'2 4.6
2017-Sep-13 06:59N 40°47' E 024°42'1 1.4
2017-Sep-13 06:31N 40°47' E 024°42'4 7.1
2017-Sep-13 05:57N 40°51' E 024°42'0 0.0
2017-Sep-13 05:30N 40°51' E 024°42'2 4.8
2017-Sep-13 05:00N 40°49' E 024°42'2 4.6
2017-Sep-13 04:30N 40°47' E 024°42'1 1.7
2017-Sep-13 04:00N 40°48' E 024°42'4 7.8
2017-Sep-13 03:30N 40°51' E 024°42'0 0.0
2017-Sep-13 03:00N 40°51' E 024°42'2 5.0
2017-Sep-13 02:30N 40°49' E 024°42'2 4.5
2017-Sep-13 02:00N 40°47' E 024°42'0 0.0
2017-Sep-13 01:30N 40°47' E 024°42'0 0.0
2017-Sep-13 00:57N 40°47' E 024°42'0 0.0
2017-Sep-13 00:21N 40°47' E 024°42'0 0.0
2017-Sep-12 23:57N 40°47' E 024°42'0 0.0
2017-Sep-12 23:27N 40°47' E 024°42'0 0.0
2017-Sep-12 23:00N 40°47' E 024°42'0 0.0
2017-Sep-12 22:30N 40°47' E 024°42'0 0.0
2017-Sep-12 22:00N 40°47' E 024°42'0 0.0
2017-Sep-12 21:30N 40°47' E 024°42'0 0.0
2017-Sep-12 21:00N 40°47' E 024°42'0 0.0
2017-Sep-12 20:30N 40°47' E 024°42'0 0.0
2017-Sep-12 20:00N 40°47' E 024°42'0 0.0
2017-Sep-12 19:30N 40°47' E 024°42'0 0.6
2017-Sep-12 19:00N 40°47' E 024°42'4 8.7
2017-Sep-12 18:30N 40°51' E 024°42'0 0.0
2017-Sep-12 18:00N 40°51' E 024°42'0 0.0
2017-Sep-12 17:30N 40°51' E 024°42'2 4.8
2017-Sep-12 17:00N 40°49' E 024°41'2 4.7
2017-Sep-12 16:30N 40°47' E 024°42'3 6.7
2017-Sep-12 16:00N 40°50' E 024°41'1 2.9
2017-Sep-12 15:30N 40°51' E 024°42'1 1.7
2017-Sep-12 15:00N 40°52' E 024°41'5 9.5
2017-Sep-12 14:30N 40°47' E 024°42'0 0.0
2017-Sep-12 14:00N 40°47' E 024°42'1 2.5
2017-Sep-12 13:30N 40°48' E 024°42'3 6.9
2017-Sep-12 13:00N 40°51' E 024°42'0 0.0
2017-Sep-12 12:30N 40°51' E 024°42'2 4.7
2017-Sep-12 12:00N 40°49' E 024°42'2 4.8
2017-Sep-12 11:30N 40°47' E 024°42'1 2.7
2017-Sep-12 11:00N 40°48' E 024°42'3 6.8
2017-Sep-12 10:30N 40°51' E 024°42'0 0.0
2017-Sep-12 10:00N 40°51' E 024°42'2 4.7
2017-Sep-12 09:30N 40°49' E 024°42'2 4.7
2017-Sep-12 09:00N 40°47' E 024°42'1 2.1
2017-Sep-12 08:30N 40°48' E 024°42'4 7.5
2017-Sep-12 08:00N 40°51' E 024°42'0 0.1
2017-Sep-12 07:30N 40°51' E 024°42'3 5.0
2017-Sep-12 07:00N 40°49' E 024°41'2 4.4
2017-Sep-12 06:29N 40°47' E 024°42'1 1.6
2017-Sep-12 06:00N 40°48' E 024°42'4 7.9
2017-Sep-12 05:30N 40°51' E 024°42'0 0.0
2017-Sep-12 05:00N 40°51' E 024°42'2 4.6
2017-Sep-12 04:30N 40°49' E 024°42'2 4.0
2017-Sep-12 03:55N 40°47' E 024°42'0 0.0
2017-Sep-12 03:28N 40°47' E 024°42'4 8.0
2017-Sep-12 03:01N 40°50' E 024°41'1 2.6
2017-Sep-12 02:28N 40°51' E 024°42'0 0.0
2017-Sep-12 01:58N 40°51' E 024°42'0 0.0
2017-Sep-12 01:28N 40°51' E 024°42'0 0.0
2017-Sep-12 00:58N 40°51' E 024°42'0 0.0
2017-Sep-12 00:28N 40°51' E 024°42'0 0.0
2017-Sep-11 23:58N 40°51' E 024°42'0 0.0
2017-Sep-11 23:22N 40°51' E 024°42'0 0.0
2017-Sep-11 22:49N 40°51' E 024°42'0 0.0
2017-Sep-11 22:28N 40°51' E 024°42'0 0.0
2017-Sep-11 21:58N 40°51' E 024°42'0 0.0
2017-Sep-11 21:25N 40°51' E 024°42'0 0.0
2017-Sep-11 20:49N 40°51' E 024°42'0 1.5
2017-Sep-11 20:30N 40°52' E 024°42'5 8.9
2017-Sep-11 19:58N 40°47' E 024°42'0 0.0
2017-Sep-11 19:28N 40°47' E 024°42'1 1.9
2017-Sep-11 19:01N 40°48' E 024°42'4 7.0
2017-Sep-11 18:27N 40°51' E 024°42'0 0.0
2017-Sep-11 18:00N 40°51' E 024°42'0 0.0
2017-Sep-11 17:30N 40°51' E 024°42'2 4.8
2017-Sep-11 17:00N 40°49' E 024°42'2 4.1
2017-Sep-11 16:26N 40°47' E 024°42'0 0.0
2017-Sep-11 15:59N 40°47' E 024°42'0 0.0
2017-Sep-11 15:29N 40°47' E 024°42'1 1.3
2017-Sep-11 15:00N 40°47' E 024°42'4 8.2
2017-Sep-11 14:31N 40°51' E 024°42'0 0.0
2017-Sep-11 14:00N 40°51' E 024°42'2 4.8
2017-Sep-11 13:30N 40°49' E 024°41'2 4.6
2017-Sep-11 12:59N 40°47' E 024°42'0 0.0
2017-Sep-11 12:30N 40°47' E 024°42'0 0.0
2017-Sep-11 12:01N 40°47' E 024°42'1 1.6
2017-Sep-11 11:31N 40°48' E 024°42'4 7.7
2017-Sep-11 11:00N 40°51' E 024°42'0 0.0
2017-Sep-11 10:31N 40°51' E 024°42'2 4.9
2017-Sep-11 10:00N 40°49' E 024°42'2 4.5
2017-Sep-11 09:31N 40°47' E 024°42'1 1.8
2017-Sep-11 09:00N 40°48' E 024°42'4 7.5
2017-Sep-11 08:30N 40°51' E 024°42'0 0.0
2017-Sep-11 08:00N 40°51' E 024°42'2 5.0
2017-Sep-11 07:31N 40°49' E 024°42'2 4.4
2017-Sep-11 07:00N 40°47' E 024°42'1 1.2
2017-Sep-11 06:31N 40°47' E 024°42'4 8.0
2017-Sep-11 06:00N 40°51' E 024°42'0 0.0
2017-Sep-11 05:31N 40°51' E 024°42'3 5.1
2017-Sep-11 05:00N 40°49' E 024°42'2 4.3
2017-Sep-11 04:30N 40°47' E 024°42'1 2.2
2017-Sep-11 04:00N 40°48' E 024°42'4 6.9
2017-Sep-11 03:29N 40°51' E 024°42'0 0.0
2017-Sep-11 03:00N 40°51' E 024°42'3 5.6
2017-Sep-11 02:30N 40°49' E 024°42'2 3.6
2017-Sep-11 01:59N 40°47' E 024°42'0 0.0
2017-Sep-11 01:29N 40°47' E 024°42'0 0.0
2017-Sep-11 00:59N 40°47' E 024°42'0 0.0
2017-Sep-11 00:29N 40°47' E 024°42'0 0.0
2017-Sep-10 23:59N 40°47' E 024°42'0 0.0
2017-Sep-10 23:29N 40°47' E 024°42'0 0.0
2017-Sep-10 22:59N 40°47' E 024°42'0 0.0
2017-Sep-10 22:29N 40°47' E 024°42'0 0.0
2017-Sep-10 21:59N 40°47' E 024°42'0 0.0
2017-Sep-10 21:29N 40°47' E 024°42'  
Track history (hours):
 
Tides and Currents Weather Stations Pressure Air Temp Water Temp Dewpoint Dewpoint Depression Visibility Wind Speed Wind Dir Waves Ship Positions

Anassa M

Last reported at 2017-Sep-20 21:00 UTC. Time now 2017-Sep-20 23:37 UTC.
Position N 40°47' E 024°42'.

Length 102 m; draft 2.4 m.

Type: Passenger vessel. MMSI: 239925700.

Date/timePositionNaut miles runAvg speedWind from/ knotsBaromVisibWave heightAir tempDewpointWater temp
2017-Sep-20 21:00N 40°47' E 024°42'0 0.0
2017-Sep-20 20:30N 40°47' E 024°42'0 0.0
2017-Sep-20 20:00N 40°47' E 024°42'0 0.0
2017-Sep-20 19:30N 40°47' E 024°42'0 0.0
2017-Sep-20 19:00N 40°47' E 024°42'0 0.0
2017-Sep-20 18:30N 40°47' E 024°42'0 0.0
2017-Sep-20 18:00N 40°47' E 024°42'0 0.0
2017-Sep-20 17:30N 40°47' E 024°42'0 0.0
2017-Sep-20 17:00N 40°47' E 024°42'0 0.0
2017-Sep-20 16:30N 40°47' E 024°42'0 0.0
2017-Sep-20 16:00N 40°47' E 024°42'0 0.0
2017-Sep-20 15:27N 40°47' E 024°42'0 0.7
2017-Sep-20 15:00N 40°47' E 024°42'4 3.9
2017-Sep-20 13:53N 40°51' E 024°42'2 6.1
2017-Sep-20 13:31N 40°49' E 024°41'2 4.8
2017-Sep-20 13:00N 40°47' E 024°42'0 0.0
2017-Sep-20 12:30N 40°47' E 024°42'0 0.0
2017-Sep-20 11:57N 40°47' E 024°42'0 0.0
2017-Sep-20 11:27N 40°47' E 024°42'0 0.0
2017-Sep-20 11:00N 40°47' E 024°42'0 0.0
2017-Sep-20 10:30N 40°47' E 024°42'0 0.0
2017-Sep-20 10:00N 40°47' E 024°42'0 0.0
2017-Sep-20 09:30N 40°47' E 024°42'4 7.6
2017-Sep-20 09:00N 40°48' E 024°37'3 5.8
2017-Sep-20 08:31N 40°46' E 024°34'5 9.5
2017-Sep-20 08:00N 40°47' E 024°29'5 9.7
2017-Sep-20 07:30N 40°49' E 024°23'3 6.0
2017-Sep-20 07:00N 40°51' E 024°19'510.3
2017-Sep-20 06:31N 40°50' E 024°26'510.7
2017-Sep-20 06:00N 40°49' E 024°33'510.4
2017-Sep-20 05:30N 40°48' E 024°39'2 3.9
2017-Sep-20 05:00N 40°48' E 024°42'4 7.6
2017-Sep-20 04:30N 40°51' E 024°42'0 0.1
2017-Sep-20 04:00N 40°51' E 024°42'0 0.0
2017-Sep-20 03:30N 40°51' E 024°42'0 0.0
2017-Sep-20 03:00N 40°51' E 024°42'0 0.0
2017-Sep-20 02:30N 40°51' E 024°42'0 0.0
2017-Sep-20 02:00N 40°51' E 024°42'0 0.0
2017-Sep-20 01:30N 40°51' E 024°42'0 0.0
2017-Sep-20 01:00N 40°51' E 024°42'0 0.0
2017-Sep-20 00:30N 40°51' E 024°42'0 0.0
2017-Sep-20 00:00N 40°51' E 024°42'0 0.0
2017-Sep-19 23:30N 40°51' E 024°42'0 0.0
2017-Sep-19 23:00N 40°51' E 024°42'0 0.0
2017-Sep-19 22:30N 40°51' E 024°42'0 0.0
2017-Sep-19 22:00N 40°51' E 024°42'0 0.0
2017-Sep-19 21:30N 40°51' E 024°42'0 0.0
2017-Sep-19 21:00N 40°51' E 024°42'0 0.0
2017-Sep-19 20:30N 40°51' E 024°42'0 0.0
2017-Sep-19 20:00N 40°51' E 024°42'0 0.0
2017-Sep-19 19:30N 40°51' E 024°42'0 0.0
2017-Sep-19 19:00N 40°51' E 024°42'0 0.0
2017-Sep-19 18:30N 40°51' E 024°42'0 0.0
2017-Sep-19 18:00N 40°51' E 024°42'0 0.0
2017-Sep-19 17:30N 40°51' E 024°42'0 0.0
2017-Sep-19 17:01N 40°51' E 024°42'0 0.0
2017-Sep-19 16:30N 40°51' E 024°42'0 0.0
2017-Sep-19 16:00N 40°51' E 024°42'0 0.0
2017-Sep-19 15:30N 40°51' E 024°42'0 0.0
2017-Sep-19 15:00N 40°51' E 024°42'0 0.7
2017-Sep-19 14:30N 40°52' E 024°42'5 9.5
2017-Sep-19 14:00N 40°47' E 024°42'0 0.0
2017-Sep-19 13:31N 40°47' E 024°42'0 0.0
2017-Sep-19 13:00N 40°47' E 024°42'0 0.0
2017-Sep-19 12:31N 40°47' E 024°42'0 0.0
2017-Sep-19 12:01N 40°47' E 024°42'1 1.8
2017-Sep-19 11:30N 40°48' E 024°42'4 7.5
2017-Sep-19 11:00N 40°51' E 024°42'0 0.0
2017-Sep-19 10:31N 40°51' E 024°42'2 4.7
2017-Sep-19 10:00N 40°49' E 024°42'2 4.7
2017-Sep-19 09:30N 40°47' E 024°42'0 0.0
2017-Sep-19 09:00N 40°47' E 024°42'0 0.0
2017-Sep-19 08:30N 40°47' E 024°42'1 1.7
2017-Sep-19 08:00N 40°48' E 024°42'4 7.7
2017-Sep-19 07:30N 40°51' E 024°42'0 0.0
2017-Sep-19 07:00N 40°51' E 024°42'2 4.8
2017-Sep-19 06:30N 40°49' E 024°42'2 4.7
2017-Sep-19 06:00N 40°47' E 024°42'3 6.4
2017-Sep-19 05:30N 40°50' E 024°41'2 3.4
2017-Sep-19 05:00N 40°51' E 024°42'1 1.6
2017-Sep-19 04:30N 40°52' E 024°41'5 9.6
2017-Sep-19 04:01N 40°47' E 024°42'0 0.0
2017-Sep-19 03:29N 40°47' E 024°42'0 0.0
2017-Sep-19 02:59N 40°47' E 024°42'0 0.0
2017-Sep-19 02:29N 40°47' E 024°42'0 0.0
2017-Sep-19 01:59N 40°47' E 024°42'0 0.0
2017-Sep-19 01:29N 40°47' E 024°42'0 0.0
2017-Sep-19 00:59N 40°47' E 024°42'0 0.0
2017-Sep-19 00:29N 40°47' E 024°42'0 0.0
2017-Sep-18 23:59N 40°47' E 024°42'0 0.0
2017-Sep-18 23:29N 40°47' E 024°42'0 0.0
2017-Sep-18 22:59N 40°47' E 024°42'0 0.0
2017-Sep-18 22:29N 40°47' E 024°42'0 0.0
2017-Sep-18 21:59N 40°47' E 024°42'0 0.0
2017-Sep-18 21:29N 40°47' E 024°42'0 0.0
2017-Sep-18 20:59N 40°47' E 024°42'0 0.0
2017-Sep-18 20:26N 40°47' E 024°42'0 0.0
2017-Sep-18 19:59N 40°47' E 024°42'0 0.0
2017-Sep-18 19:29N 40°47' E 024°42'0 0.0
2017-Sep-18 18:59N 40°47' E 024°42'0 0.0
2017-Sep-18 18:29N 40°47' E 024°42'0 0.0
2017-Sep-18 17:59N 40°47' E 024°42'0 0.0
2017-Sep-18 17:29N 40°47' E 024°42'0 0.0
2017-Sep-18 16:59N 40°47' E 024°42'0 0.0
2017-Sep-18 16:29N 40°47' E 024°42'0 0.0
2017-Sep-18 15:56N 40°47' E 024°42'0 0.0
2017-Sep-18 15:26N 40°47' E 024°42'0 0.0
2017-Sep-18 14:59N 40°47' E 024°42'0 0.0
2017-Sep-18 14:29N 40°47' E 024°42'0 0.0
2017-Sep-18 13:59N 40°47' E 024°42'0 0.0
2017-Sep-18 13:29N 40°47' E 024°42'0 0.0
2017-Sep-18 12:59N 40°47' E 024°42'0 0.0
2017-Sep-18 12:29N 40°47' E 024°42'0 0.0
2017-Sep-18 11:59N 40°47' E 024°42'0 0.0
2017-Sep-18 11:29N 40°47' E 024°42'0 0.0
2017-Sep-18 10:59N 40°47' E 024°42'0 0.0
2017-Sep-18 10:29N 40°47' E 024°42'0 0.0
2017-Sep-18 09:59N 40°47' E 024°42'3 7.0
2017-Sep-18 09:31N 40°50' E 024°41'2 3.4
2017-Sep-18 09:01N 40°51' E 024°42'1 1.4
2017-Sep-18 08:31N 40°52' E 024°41'5 9.7
2017-Sep-18 08:00N 40°47' E 024°42'1 1.2
2017-Sep-18 07:30N 40°47' E 024°42'4 8.1
2017-Sep-18 07:00N 40°51' E 024°42'0 0.0
2017-Sep-18 06:31N 40°51' E 024°42'2 4.7
2017-Sep-18 06:00N 40°49' E 024°42'2 4.7
2017-Sep-18 05:31N 40°47' E 024°42'1 2.5
2017-Sep-18 05:00N 40°48' E 024°42'3 6.8
2017-Sep-18 04:30N 40°51' E 024°42'0 0.0
2017-Sep-18 04:00N 40°51' E 024°42'0 0.0
2017-Sep-18 03:30N 40°51' E 024°42'0 0.0
2017-Sep-18 03:00N 40°51' E 024°42'0 0.0
2017-Sep-18 02:30N 40°51' E 024°42'0 0.0
2017-Sep-18 02:00N 40°51' E 024°42'0 0.0
2017-Sep-18 01:30N 40°51' E 024°42'0 0.0
2017-Sep-18 01:00N 40°51' E 024°42'0 0.0
2017-Sep-18 00:30N 40°51' E 024°42'0 0.0
2017-Sep-18 00:00N 40°51' E 024°42'0 0.0
2017-Sep-17 23:30N 40°51' E 024°42'0 0.0
2017-Sep-17 23:00N 40°51' E 024°42'0 0.0
2017-Sep-17 22:30N 40°51' E 024°42'0 0.0
2017-Sep-17 22:00N 40°51' E 024°42'0 0.0
2017-Sep-17 21:30N 40°51' E 024°42'0 0.0
2017-Sep-17 21:00N 40°51' E 024°42'0 0.0
2017-Sep-17 20:30N 40°51' E 024°42'0 0.0
2017-Sep-17 20:00N 40°51' E 024°42'0 0.0
2017-Sep-17 19:30N 40°51' E 024°42'0 0.0
2017-Sep-17 19:00N 40°51' E 024°42'0 0.0
2017-Sep-17 18:30N 40°51' E 024°42'0 0.6
2017-Sep-17 18:00N 40°52' E 024°42'5 9.5
2017-Sep-17 17:30N 40°47' E 024°42'0 0.0
2017-Sep-17 17:00N 40°47' E 024°42'0 0.0
2017-Sep-17 16:30N 40°47' E 024°42'0 0.0
2017-Sep-17 16:00N 40°47' E 024°42'0 0.0
2017-Sep-17 15:30N 40°47' E 024°42'0 0.0
2017-Sep-17 15:00N 40°47' E 024°42'1 1.6
2017-Sep-17 14:30N 40°48' E 024°42'4 7.8
2017-Sep-17 14:00N 40°51' E 024°42'0 0.0
2017-Sep-17 13:30N 40°51' E 024°42'2 4.7
2017-Sep-17 13:00N 40°49' E 024°42'2 4.7
2017-Sep-17 12:30N 40°47' E 024°42'1 1.6
2017-Sep-17 12:00N 40°48' E 024°42'4 7.8
2017-Sep-17 11:30N 40°51' E 024°42'0 0.0
2017-Sep-17 11:00N 40°51' E 024°42'2 4.9
2017-Sep-17 10:30N 40°49' E 024°42'2 4.4
2017-Sep-17 10:00N 40°47' E 024°42'1 1.7
2017-Sep-17 09:30N 40°48' E 024°42'4 7.6
2017-Sep-17 09:00N 40°51' E 024°42'0 0.1
2017-Sep-17 08:28N 40°51' E 024°42'2 5.4
2017-Sep-17 08:00N 40°49' E 024°41'2 4.1
2017-Sep-17 07:27N 40°47' E 024°42'1 1.8
2017-Sep-17 07:00N 40°48' E 024°42'4 7.8
2017-Sep-17 06:30N 40°51' E 024°42'0 0.0
2017-Sep-17 05:58N 40°51' E 024°42'2 5.1
2017-Sep-17 05:31N 40°49' E 024°42'2 4.3
2017-Sep-17 04:57N 40°47' E 024°42'1 1.8
2017-Sep-17 04:30N 40°48' E 024°42'4 7.7
2017-Sep-17 04:00N 40°51' E 024°42'0 0.0
2017-Sep-17 03:30N 40°51' E 024°42'0 0.0
2017-Sep-17 03:00N 40°51' E 024°42'0 0.0
2017-Sep-17 02:30N 40°51' E 024°42'0 0.0
2017-Sep-17 02:00N 40°51' E 024°42'0 0.0
2017-Sep-17 01:27N 40°51' E 024°42'0 0.0
2017-Sep-17 00:57N 40°51' E 024°42'0 0.0
2017-Sep-17 00:27N 40°51' E 024°42'0 0.0
2017-Sep-16 23:57N 40°51' E 024°42'0 0.0
2017-Sep-16 23:30N 40°51' E 024°42'0 0.0
2017-Sep-16 23:00N 40°51' E 024°42'0 0.0
2017-Sep-16 22:30N 40°51' E 024°42'0 0.0
2017-Sep-16 22:00N 40°51' E 024°42'0 0.0
2017-Sep-16 21:30N 40°51' E 024°42'0 0.0
2017-Sep-16 21:00N 40°51' E 024°42'0 0.0
2017-Sep-16 20:30N 40°51' E 024°42'0 0.0
2017-Sep-16 20:00N 40°51' E 024°42'0 0.0
2017-Sep-16 19:27N 40°51' E 024°42'0 0.0
2017-Sep-16 19:00N 40°51' E 024°42'0 0.0
2017-Sep-16 18:30N 40°51' E 024°42'0 0.2
2017-Sep-16 18:00N 40°51' E 024°42'5 9.3
2017-Sep-16 17:30N 40°47' E 024°42'0 0.0
2017-Sep-16 17:00N 40°47' E 024°42'0 0.0
2017-Sep-16 16:30N 40°47' E 024°42'0 0.0
2017-Sep-16 16:00N 40°47' E 024°42'1 1.6
2017-Sep-16 15:31N 40°48' E 024°42'4 7.7
2017-Sep-16 15:00N 40°51' E 024°42'0 0.0
2017-Sep-16 14:28N 40°51' E 024°42'3 5.6
2017-Sep-16 14:00N 40°49' E 024°42'2 3.7
2017-Sep-16 13:26N 40°47' E 024°42'1 2.1
2017-Sep-16 13:00N 40°48' E 024°42'4 7.5
2017-Sep-16 12:30N 40°51' E 024°42'0 0.0
2017-Sep-16 11:55N 40°51' E 024°42'2 5.6
2017-Sep-16 11:31N 40°49' E 024°42'2 4.1
2017-Sep-16 10:56N 40°47' E 024°42'1 2.7
2017-Sep-16 10:30N 40°48' E 024°42'4 7.1
2017-Sep-16 10:00N 40°51' E 024°42'0 0.0
2017-Sep-16 09:27N 40°51' E 024°42'2 5.5
2017-Sep-16 09:00N 40°49' E 024°41'2 4.6
2017-Sep-16 08:29N 40°47' E 024°42'1 2.4
2017-Sep-16 08:00N 40°48' E 024°41'4 7.4
2017-Sep-16 07:30N 40°51' E 024°42'0 0.1
2017-Sep-16 07:00N 40°51' E 024°42'2 4.6
2017-Sep-16 06:30N 40°49' E 024°42'2 5.0
2017-Sep-16 06:01N 40°47' E 024°42'1 1.7
2017-Sep-16 05:31N 40°48' E 024°42'4 7.8
2017-Sep-16 05:01N 40°51' E 024°42'0 0.0
2017-Sep-16 04:30N 40°51' E 024°42'3 5.2
2017-Sep-16 04:00N 40°49' E 024°42'2 4.2
2017-Sep-16 03:30N 40°47' E 024°42'0 0.0
2017-Sep-16 03:00N 40°47' E 024°42'0 0.0
2017-Sep-16 02:30N 40°47' E 024°42'0 0.0
2017-Sep-16 02:00N 40°47' E 024°42'0 0.0
2017-Sep-16 01:30N 40°47' E 024°42'0 0.0
2017-Sep-16 01:00N 40°47' E 024°42'0 0.0
2017-Sep-16 00:30N 40°47' E 024°42'0 0.0
2017-Sep-16 00:00N 40°47' E 024°42'0 0.0
2017-Sep-15 23:30N 40°47' E 024°42'0 0.0
2017-Sep-15 23:00N 40°47' E 024°42'0 0.0
2017-Sep-15 22:30N 40°47' E 024°42'0 0.0
2017-Sep-15 22:00N 40°47' E 024°42'0 0.0
2017-Sep-15 21:30N 40°47' E 024°42'0 0.0
2017-Sep-15 21:00N 40°47' E 024°42'0 0.0
2017-Sep-15 20:30N 40°47' E 024°42'0 0.0
2017-Sep-15 20:00N 40°47' E 024°42'0 0.0
2017-Sep-15 19:30N 40°47' E 024°42'0 0.0
2017-Sep-15 19:00N 40°47' E 024°42'0 0.0
2017-Sep-15 18:30N 40°47' E 024°42'0 0.0
2017-Sep-15 18:00N 40°47' E 024°42'0 0.0
2017-Sep-15 17:30N 40°47' E 024°42'0 0.5
2017-Sep-15 17:01N 40°47' E 024°42'4 8.9
2017-Sep-15 16:31N 40°51' E 024°42'0 0.0
2017-Sep-15 16:00N 40°51' E 024°42'2 4.8
2017-Sep-15 15:31N 40°49' E 024°42'2 4.4
2017-Sep-15 14:59N 40°47' E 024°42'0 0.0
2017-Sep-15 14:29N 40°47' E 024°42'1 1.5
2017-Sep-15 14:00N 40°47' E 024°42'4 8.0
2017-Sep-15 13:31N 40°51' E 024°42'0 0.1
2017-Sep-15 12:56N 40°51' E 024°42'2 5.4
2017-Sep-15 12:30N 40°49' E 024°42'2 4.8
2017-Sep-15 12:00N 40°47' E 024°42'1 1.6
2017-Sep-15 11:31N 40°48' E 024°42'4 7.8
2017-Sep-15 11:01N 40°51' E 024°42'0 0.0
2017-Sep-15 10:30N 40°51' E 024°42'2 4.7
2017-Sep-15 10:00N 40°49' E 024°41'2 4.8
2017-Sep-15 09:30N 40°47' E 024°42'1 1.8
2017-Sep-15 09:00N 40°48' E 024°42'4 7.7
2017-Sep-15 08:31N 40°51' E 024°42'0 0.0
2017-Sep-15 07:58N 40°51' E 024°42'2 5.1
2017-Sep-15 07:30N 40°49' E 024°42'2 4.6
2017-Sep-15 07:00N 40°47' E 024°42'1 1.6
2017-Sep-15 06:30N 40°48' E 024°42'4 7.8
2017-Sep-15 06:00N 40°51' E 024°42'0 0.0
2017-Sep-15 05:28N 40°51' E 024°42'2 5.0
2017-Sep-15 05:00N 40°49' E 024°41'2 4.6
2017-Sep-15 04:28N 40°47' E 024°42'1 1.9
2017-Sep-15 04:00N 40°48' E 024°42'4 7.8
2017-Sep-15 03:31N 40°51' E 024°42'0 0.0
2017-Sep-15 02:59N 40°51' E 024°42'2 5.2
2017-Sep-15 02:31N 40°49' E 024°42'2 4.6
2017-Sep-15 02:00N 40°47' E 024°42'0 0.0
2017-Sep-15 01:30N 40°47' E 024°42'0 0.0
2017-Sep-15 01:00N 40°47' E 024°42'0 0.0
2017-Sep-15 00:30N 40°47' E 024°42'0 0.0
2017-Sep-15 00:00N 40°47' E 024°42'0 0.0
2017-Sep-14 23:27N 40°47' E 024°42'0 0.0
2017-Sep-14 23:00N 40°47' E 024°42'0 0.0
2017-Sep-14 22:30N 40°47' E 024°42'0 0.0
2017-Sep-14 22:00N 40°47' E 024°42'0 0.0
2017-Sep-14 21:30N 40°47' E 024°42'0 0.0
2017-Sep-14 21:00N 40°47' E 024°42'0 0.8
2017-Sep-14 20:30N 40°47' E 024°42'4 8.4
2017-Sep-14 20:00N 40°51' E 024°42'0 0.0
2017-Sep-14 19:27N 40°51' E 024°42'2 5.4
2017-Sep-14 19:00N 40°49' E 024°41'2 4.4
2017-Sep-14 18:28N 40°47' E 024°42'0 0.0
2017-Sep-14 17:58N 40°47' E 024°42'4 7.9
2017-Sep-14 17:30N 40°50' E 024°41'1 2.8
2017-Sep-14 16:59N 40°51' E 024°42'1 1.4
2017-Sep-14 16:31N 40°52' E 024°41'5 9.5
2017-Sep-14 16:00N 40°47' E 024°42'0 0.0
2017-Sep-14 15:30N 40°47' E 024°42'0 0.0
2017-Sep-14 15:00N 40°47' E 024°42'1 1.7
2017-Sep-14 14:30N 40°48' E 024°42'4 7.9
2017-Sep-14 14:00N 40°51' E 024°42'0 0.0
2017-Sep-14 13:29N 40°51' E 024°42'2 4.9
2017-Sep-14 13:00N 40°49' E 024°41'2 4.6
2017-Sep-14 12:28N 40°47' E 024°42'1 2.1
2017-Sep-14 12:00N 40°48' E 024°42'4 7.7
2017-Sep-14 11:31N 40°51' E 024°42'0 0.1
2017-Sep-14 10:56N 40°51' E 024°42'2 5.4
2017-Sep-14 10:30N 40°49' E 024°41'2 4.5
2017-Sep-14 09:58N 40°47' E 024°42'1 2.0
2017-Sep-14 09:30N 40°48' E 024°42'4 7.5
2017-Sep-14 09:00N 40°51' E 024°42'0 0.0
2017-Sep-14 08:30N 40°51' E 024°42'2 4.8
2017-Sep-14 08:00N 40°49' E 024°42'2 4.3
2017-Sep-14 07:28N 40°47' E 024°42'1 2.0
2017-Sep-14 07:00N 40°48' E 024°42'4 7.5
2017-Sep-14 06:30N 40°51' E 024°42'0 0.0
2017-Sep-14 05:59N 40°51' E 024°42'2 5.0
2017-Sep-14 05:30N 40°49' E 024°41'2 4.6
2017-Sep-14 04:59N 40°47' E 024°42'1 2.3
2017-Sep-14 04:30N 40°48' E 024°42'4 7.2
2017-Sep-14 04:00N 40°51' E 024°42'0 0.0
2017-Sep-14 03:23N 40°51' E 024°42'0 0.0
2017-Sep-14 02:59N 40°51' E 024°42'0 0.0
2017-Sep-14 02:29N 40°51' E 024°42'0 0.0
2017-Sep-14 01:59N 40°51' E 024°42'0 0.0
2017-Sep-14 01:29N 40°51' E 024°42'0 0.0
2017-Sep-14 00:59N 40°51' E 024°42'0 0.0
2017-Sep-14 00:29N 40°51' E 024°42'0 0.0
2017-Sep-13 23:59N 40°51' E 024°42'0 0.0
2017-Sep-13 23:29N 40°51' E 024°42'0 0.0
2017-Sep-13 22:59N 40°51' E 024°42'0 0.0
2017-Sep-13 22:29N 40°51' E 024°42'0 0.0
2017-Sep-13 21:59N 40°51' E 024°42'0 0.0
2017-Sep-13 21:29N 40°51' E 024°42'0 0.0
2017-Sep-13 20:59N 40°51' E 024°42'0 0.4
2017-Sep-13 20:30N 40°52' E 024°42'5 9.5
2017-Sep-13 20:00N 40°47' E 024°42'0 0.0
2017-Sep-13 19:30N 40°47' E 024°42'0 0.1
2017-Sep-13 18:49N 40°47' E 024°42'0 0.0
2017-Sep-13 18:28N 40°47' E 024°42'0 0.0
2017-Sep-13 17:58N 40°47' E 024°42'0 0.0
2017-Sep-13 17:28N 40°47' E 024°42'1 1.6
2017-Sep-13 17:01N 40°48' E 024°42'4 7.8
2017-Sep-13 16:31N 40°51' E 024°42'0 0.0
2017-Sep-13 15:58N 40°51' E 024°42'2 4.9
2017-Sep-13 15:31N 40°49' E 024°42'2 4.4
2017-Sep-13 14:56N 40°47' E 024°42'0 0.0
2017-Sep-13 14:29N 40°47' E 024°42'1 1.8
2017-Sep-13 14:00N 40°48' E 024°42'4 7.7
2017-Sep-13 13:30N 40°51' E 024°42'0 0.0
2017-Sep-13 12:56N 40°51' E 024°42'2 5.2
2017-Sep-13 12:30N 40°49' E 024°42'2 4.7
2017-Sep-13 11:59N 40°47' E 024°42'1 1.4
2017-Sep-13 11:30N 40°47' E 024°42'4 8.0
2017-Sep-13 11:00N 40°51' E 024°42'0 0.0
2017-Sep-13 10:30N 40°51' E 024°42'2 4.6
2017-Sep-13 10:00N 40°49' E 024°42'2 4.8
2017-Sep-13 09:30N 40°47' E 024°42'1 1.3
2017-Sep-13 09:00N 40°47' E 024°42'4 8.0
2017-Sep-13 08:30N 40°51' E 024°42'0 0.0
2017-Sep-13 08:00N 40°51' E 024°42'2 4.7
2017-Sep-13 07:30N 40°49' E 024°42'2 4.6
2017-Sep-13 06:59N 40°47' E 024°42'1 1.4
2017-Sep-13 06:31N 40°47' E 024°42'4 7.1
2017-Sep-13 05:57N 40°51' E 024°42'0 0.0
2017-Sep-13 05:30N 40°51' E 024°42'2 4.8
2017-Sep-13 05:00N 40°49' E 024°42'2 4.6
2017-Sep-13 04:30N 40°47' E 024°42'1 1.7
2017-Sep-13 04:00N 40°48' E 024°42'4 7.8
2017-Sep-13 03:30N 40°51' E 024°42'0 0.0
2017-Sep-13 03:00N 40°51' E 024°42'2 5.0
2017-Sep-13 02:30N 40°49' E 024°42'2 4.5
2017-Sep-13 02:00N 40°47' E 024°42'0 0.0
2017-Sep-13 01:30N 40°47' E 024°42'0 0.0
2017-Sep-13 00:57N 40°47' E 024°42'0 0.0
2017-Sep-13 00:21N 40°47' E 024°42'0 0.0
2017-Sep-12 23:57N 40°47' E 024°42'0 0.0
2017-Sep-12 23:27N 40°47' E 024°42'0 0.0
2017-Sep-12 23:00N 40°47' E 024°42'0 0.0
2017-Sep-12 22:30N 40°47' E 024°42'0 0.0
2017-Sep-12 22:00N 40°47' E 024°42'0 0.0
2017-Sep-12 21:30N 40°47' E 024°42'0 0.0
2017-Sep-12 21:00N 40°47' E 024°42'0 0.0
2017-Sep-12 20:30N 40°47' E 024°42'0 0.0
2017-Sep-12 20:00N 40°47' E 024°42'0 0.0
2017-Sep-12 19:30N 40°47' E 024°42'0 0.6
2017-Sep-12 19:00N 40°47' E 024°42'4 8.7
2017-Sep-12 18:30N 40°51' E 024°42'0 0.0
2017-Sep-12 18:00N 40°51' E 024°42'0 0.0
2017-Sep-12 17:30N 40°51' E 024°42'2 4.8
2017-Sep-12 17:00N 40°49' E 024°41'2 4.7
2017-Sep-12 16:30N 40°47' E 024°42'3 6.7
2017-Sep-12 16:00N 40°50' E 024°41'1 2.9
2017-Sep-12 15:30N 40°51' E 024°42'1 1.7
2017-Sep-12 15:00N 40°52' E 024°41'5 9.5
2017-Sep-12 14:30N 40°47' E 024°42'0 0.0
2017-Sep-12 14:00N 40°47' E 024°42'1 2.5
2017-Sep-12 13:30N 40°48' E 024°42'3 6.9
2017-Sep-12 13:00N 40°51' E 024°42'0 0.0
2017-Sep-12 12:30N 40°51' E 024°42'2 4.7
2017-Sep-12 12:00N 40°49' E 024°42'2 4.8
2017-Sep-12 11:30N 40°47' E 024°42'1 2.7
2017-Sep-12 11:00N 40°48' E 024°42'3 6.8
2017-Sep-12 10:30N 40°51' E 024°42'0 0.0
2017-Sep-12 10:00N 40°51' E 024°42'2 4.7
2017-Sep-12 09:30N 40°49' E 024°42'2 4.7
2017-Sep-12 09:00N 40°47' E 024°42'1 2.1
2017-Sep-12 08:30N 40°48' E 024°42'4 7.5
2017-Sep-12 08:00N 40°51' E 024°42'0 0.1
2017-Sep-12 07:30N 40°51' E 024°42'3 5.0
2017-Sep-12 07:00N 40°49' E 024°41'2 4.4
2017-Sep-12 06:29N 40°47' E 024°42'1 1.6
2017-Sep-12 06:00N 40°48' E 024°42'4 7.9
2017-Sep-12 05:30N 40°51' E 024°42'0 0.0
2017-Sep-12 05:00N 40°51' E 024°42'2 4.6
2017-Sep-12 04:30N 40°49' E 024°42'2 4.0
2017-Sep-12 03:55N 40°47' E 024°42'0 0.0
2017-Sep-12 03:28N 40°47' E 024°42'4 8.0
2017-Sep-12 03:01N 40°50' E 024°41'1 2.6
2017-Sep-12 02:28N 40°51' E 024°42'0 0.0
2017-Sep-12 01:58N 40°51' E 024°42'0 0.0
2017-Sep-12 01:28N 40°51' E 024°42'0 0.0
2017-Sep-12 00:58N 40°51' E 024°42'0 0.0
2017-Sep-12 00:28N 40°51' E 024°42'0 0.0
2017-Sep-11 23:58N 40°51' E 024°42'0 0.0
2017-Sep-11 23:22N 40°51' E 024°42'0 0.0
2017-Sep-11 22:49N 40°51' E 024°42'0 0.0
2017-Sep-11 22:28N 40°51' E 024°42'0 0.0
2017-Sep-11 21:58N 40°51' E 024°42'0 0.0
2017-Sep-11 21:25N 40°51' E 024°42'0 0.0
2017-Sep-11 20:49N 40°51' E 024°42'0 1.5
2017-Sep-11 20:30N 40°52' E 024°42'5 8.9
2017-Sep-11 19:58N 40°47' E 024°42'0 0.0
2017-Sep-11 19:28N 40°47' E 024°42'1 1.9
2017-Sep-11 19:01N 40°48' E 024°42'4 7.0
2017-Sep-11 18:27N 40°51' E 024°42'0 0.0
2017-Sep-11 18:00N 40°51' E 024°42'0 0.0
2017-Sep-11 17:30N 40°51' E 024°42'2 4.8
2017-Sep-11 17:00N 40°49' E 024°42'2 4.1
2017-Sep-11 16:26N 40°47' E 024°42'0 0.0
2017-Sep-11 15:59N 40°47' E 024°42'0 0.0
2017-Sep-11 15:29N 40°47' E 024°42'1 1.3
2017-Sep-11 15:00N 40°47' E 024°42'4 8.2
2017-Sep-11 14:31N 40°51' E 024°42'0 0.0
2017-Sep-11 14:00N 40°51' E 024°42'2 4.8
2017-Sep-11 13:30N 40°49' E 024°41'2 4.6
2017-Sep-11 12:59N 40°47' E 024°42'0 0.0
2017-Sep-11 12:30N 40°47' E 024°42'0 0.0
2017-Sep-11 12:01N 40°47' E 024°42'1 1.6
2017-Sep-11 11:31N 40°48' E 024°42'4 7.7
2017-Sep-11 11:00N 40°51' E 024°42'0 0.0
2017-Sep-11 10:31N 40°51' E 024°42'2 4.9
2017-Sep-11 10:00N 40°49' E 024°42'2 4.5
2017-Sep-11 09:31N 40°47' E 024°42'1 1.8
2017-Sep-11 09:00N 40°48' E 024°42'4 7.5
2017-Sep-11 08:30N 40°51' E 024°42'0 0.0
2017-Sep-11 08:00N 40°51' E 024°42'2 5.0
2017-Sep-11 07:31N 40°49' E 024°42'2 4.4
2017-Sep-11 07:00N 40°47' E 024°42'1 1.2
2017-Sep-11 06:31N 40°47' E 024°42'4 8.0
2017-Sep-11 06:00N 40°51' E 024°42'0 0.0
2017-Sep-11 05:31N 40°51' E 024°42'3 5.1
2017-Sep-11 05:00N 40°49' E 024°42'2 4.3
2017-Sep-11 04:30N 40°47' E 024°42'1 2.2
2017-Sep-11 04:00N 40°48' E 024°42'4 6.9
2017-Sep-11 03:29N 40°51' E 024°42'0 0.0
2017-Sep-11 03:00N 40°51' E 024°42'3 5.6
2017-Sep-11 02:30N 40°49' E 024°42'2 3.6
2017-Sep-11 01:59N 40°47' E 024°42'0 0.0
2017-Sep-11 01:29N 40°47' E 024°42'0 0.0
2017-Sep-11 00:59N 40°47' E 024°42'0 0.0
2017-Sep-11 00:29N 40°47' E 024°42'0 0.0
2017-Sep-10 23:59N 40°47' E 024°42'0 0.0
2017-Sep-10 23:29N 40°47' E 024°42'0 0.0
2017-Sep-10 22:59N 40°47' E 024°42'0 0.0
2017-Sep-10 22:29N 40°47' E 024°42'0 0.0
2017-Sep-10 21:59N 40°47' E 024°42'0 0.0
2017-Sep-10 21:29N 40°47' E 024°42'  

Dump ship's entire track history